Terminal Aerodrome Forecast
Issued by NWS Twin Cities, MN

Home | Current Version | Previous Version | Graphics & Text | Print | Product List | Glossary On
Versions: 1 2 3 4 5 6 7 8 9 10 11 12 13 14 15 16 17 18 19 20
000
FTUS43 KMPX 281100
TAFEAU
TAF
KEAU 281137Z 2812/2912 VRB03KT 3SM BR SCT003
      TEMPO 2812/2813 1/2SM FG VV003
     FM281400 18004KT P6SM FEW060
     FM281800 19007KT P6SM SCT060
     FM290000 22003KT P6SM FEW060
     FM290900 27003KT 6SM BR SCT025 BKN060=

USA.gov is the U.S. government's official web portal to all federal, state and local government web resources and services.